createdAt,value
2017-10-06T00:10:05.280Z,-82
2017-10-06T00:22:01.202Z,-82
2017-10-06T00:33:56.907Z,-82
2017-10-06T00:45:52.963Z,-82
2017-10-06T00:57:48.823Z,-82
2017-10-06T01:09:44.831Z,-82
2017-10-06T01:21:40.792Z,-84
2017-10-06T01:33:36.507Z,-82
2017-10-06T01:45:32.284Z,-82
2017-10-06T01:57:28.187Z,-86
2017-10-06T02:09:24.008Z,-82
2017-10-06T02:21:19.964Z,-82
2017-10-06T02:33:15.924Z,-80
2017-10-06T02:45:12.949Z,-82
2017-10-06T02:57:08.903Z,-84
2017-10-06T03:09:05.422Z,-84
2017-10-06T03:21:01.208Z,-84
2017-10-06T03:32:58.287Z,-84
2017-10-06T03:44:54.224Z,-80
2017-10-06T03:56:50.567Z,-84
2017-10-06T04:08:46.607Z,-84
2017-10-06T04:20:41.170Z,-82
2017-10-06T04:32:37.629Z,-82
2017-10-06T04:44:33.730Z,-84
2017-10-06T04:56:29.908Z,-82
2017-10-06T05:08:29.868Z,-84
2017-10-06T05:20:27.647Z,-82
2017-10-06T05:32:31.380Z,-86
2017-10-06T05:44:27.624Z,-82
2017-10-06T05:56:24.529Z,-84
2017-10-06T06:08:20.466Z,-84
2017-10-06T06:20:16.625Z,-82
2017-10-06T06:32:11.802Z,-80
2017-10-06T06:44:08.446Z,-82
2017-10-06T06:56:05.941Z,-82
2017-10-06T07:08:02.540Z,-82
2017-10-06T07:19:58.889Z,-82
2017-10-06T07:31:58.985Z,-82
2017-10-06T07:43:57.324Z,-82
2017-10-06T07:55:54.986Z,-82
2017-10-06T08:08:05.187Z,-82
2017-10-06T08:20:04.734Z,-80
2017-10-06T08:43:53.167Z,-80
2017-10-06T08:55:55.928Z,-82
2017-10-06T09:08:06.270Z,-84
2017-10-06T09:20:06.451Z,-82
2017-10-06T09:32:06.627Z,-82
2017-10-06T09:44:10.575Z,-80
2017-10-06T09:56:10.380Z,-82
2017-10-06T10:08:27.488Z,-82
2017-10-06T10:20:31.424Z,-80
2017-10-06T10:32:33.010Z,-82
2017-10-06T10:44:32.747Z,-80
2017-10-06T10:56:30.985Z,-80
2017-10-06T11:08:39.710Z,-82
2017-10-06T11:20:43.566Z,-82
2017-10-06T11:33:13.287Z,-80
2017-10-06T11:45:12.829Z,-82
2017-10-06T11:57:20.949Z,-80
2017-10-06T12:09:19.926Z,-84
2017-10-06T12:21:20.530Z,-84
2017-10-06T12:33:34.069Z,-84
2017-10-06T12:57:30.082Z,-82
2017-10-06T13:09:38.719Z,-82
2017-10-06T13:21:41.406Z,-82
2017-10-06T13:33:49.823Z,-82
2017-10-06T13:45:58.742Z,-82
2017-10-06T13:58:06.670Z,-82
2017-10-06T14:10:16.947Z,-84
2017-10-06T14:34:55.104Z,-88
2017-10-06T14:46:58.065Z,-84
2017-10-06T14:59:23.651Z,-84
2017-10-06T15:11:51.067Z,-86
2017-10-06T15:35:46.410Z,-82
2017-10-06T15:47:57.029Z,-80
2017-10-06T16:00:13.987Z,-84
2017-10-06T16:12:28.706Z,-80
2017-10-06T16:24:34.686Z,-84
2017-10-06T16:36:34.605Z,-84
2017-10-06T16:48:33.388Z,-86
2017-10-06T17:00:32.987Z,-82
2017-10-06T17:12:31.822Z,-84
2017-10-06T17:24:30.110Z,-84
2017-10-06T17:36:36.851Z,-84
2017-10-06T17:48:35.675Z,-82
2017-10-06T18:00:38.487Z,-84
2017-10-06T18:12:39.528Z,-84
2017-10-06T18:24:40.343Z,-84
2017-10-06T18:36:40.281Z,-82
2017-10-06T18:48:38.566Z,-84
2017-10-06T19:00:40.923Z,-82
2017-10-06T19:12:38.808Z,-84
2017-10-06T19:24:46.083Z,-84
2017-10-06T19:36:46.065Z,-82
2017-10-06T19:48:43.193Z,-84
2017-10-06T20:00:40.931Z,-84
2017-10-06T20:12:37.252Z,-86
2017-10-06T20:24:34.004Z,-84
2017-10-06T20:36:31.404Z,-82
2017-10-06T20:48:29.144Z,-84
2017-10-06T21:00:28.423Z,-86
2017-10-06T21:12:26.384Z,-86
2017-10-06T21:24:23.327Z,-84
2017-10-06T21:36:20.425Z,-84
2017-10-06T21:48:17.444Z,-84
2017-10-06T22:00:17.463Z,-84
2017-10-06T22:12:15.100Z,-86
2017-10-06T22:24:17.430Z,-96
2017-10-06T22:36:16.700Z,-94
2017-10-06T22:48:23.592Z,-92
2017-10-06T23:00:24.652Z,-92
2017-10-06T23:12:29.054Z,-92
2017-10-06T23:24:34.440Z,-94
2017-10-06T23:36:39.610Z,-94
2017-10-06T23:48:40.382Z,-94
